PWSweather.com
Personal Weather Stations
Station Observations
KMIEASTT1
Tawas Bay, East Tawas, MI 48730

Tawas BayEast Tawas, MI 48730

Lat: 44.28, Lon: -83.48

Elevation: 600

Station Type: Davis VantagePro

http://www.tawasbayweather.com

High Low Average
Temperature 39.1°F3.9°C 22.1°F-5.5°C 29.4°F-1.4°C
Dew Point 23.1°F-4.9°C 15.4°F-9.2°C 17.9°F-7.8°C
Winds 17.0 mph 27.4 kmh 2.0 mph 3.2 kmh 8.0 mph WSW12.9 kmh WSW
Wind Gusts 21.0 mph33.8 kmh 3.0 mph4.8 kmh 11.0 mph17.7 kmh
Humidity 76% 38% 63%
Pressure 30.18 in1022.0 mb 30.01 in1016.3 mb -
Precipitation 0.00 in0.0 mm - -
Hour Temp Dew Point Humidity Winds Wind Gusts Pressure Precip Precip Rate Daily Precip Total
12:01 AM 27.9°F-2.3°C 16.2°F-8.8°C 61% 2.0 mph W3.2 kmh W 7.0 mph11.3 kmh 30.18 in1022.0 mb 0.00 in0.0 mm 0.00 in/hr0.0 mm/hr 0.00 in0.0 mm
12:16 AM 27.7°F-2.4°C 16.0°F-8.9°C 61% 4.0 mph WSW6.4 kmh WSW 7.0 mph11.3 kmh 30.18 in1022.0 mb 0.00 in0.0 mm 0.00 in/hr0.0 mm/hr 0.00 in0.0 mm
12:31 AM 27.6°F-2.4°C 16.3°F-8.7°C 62% 4.0 mph WSW6.4 kmh WSW 8.0 mph12.9 kmh 30.17 in1021.7 mb 0.00 in0.0 mm 0.00 in/hr0.0 mm/hr 0.00 in0.0 mm
12:46 AM 26.2°F-3.2°C 16.8°F-8.4°C 67% 4.0 mph WSW6.4 kmh WSW 7.0 mph11.3 kmh 30.17 in1021.7 mb 0.00 in0.0 mm 0.00 in/hr0.0 mm/hr 0.00 in0.0 mm
01:01 AM 25.8°F-3.4°C 16.7°F-8.5°C 68% 5.0 mph WSW8.0 kmh WSW 7.0 mph11.3 kmh 30.17 in1021.7 mb 0.00 in0.0 mm 0.00 in/hr0.0 mm/hr 0.00 in0.0 mm
01:16 AM 26.1°F-3.3°C 16.7°F-8.5°C 67% 5.0 mph WSW8.0 kmh WSW 7.0 mph11.3 kmh 30.17 in1021.7 mb 0.00 in0.0 mm 0.00 in/hr0.0 mm/hr 0.00 in0.0 mm
01:31 AM 25.8°F-3.4°C 16.4°F-8.7°C 67% 5.0 mph WSW8.0 kmh WSW 7.0 mph11.3 kmh 30.17 in1021.7 mb 0.00 in0.0 mm 0.00 in/hr0.0 mm/hr 0.00 in0.0 mm
01:46 AM 25.4°F-3.7°C 16.7°F-8.5°C 69% 4.0 mph WSW6.4 kmh WSW 7.0 mph11.3 kmh 30.17 in1021.7 mb 0.00 in0.0 mm 0.00 in/hr0.0 mm/hr 0.00 in0.0 mm
02:01 AM 25.2°F-3.8°C 16.8°F-8.4°C 70% 2.0 mph WSW3.2 kmh WSW 5.0 mph8.0 kmh 30.17 in1021.7 mb 0.00 in0.0 mm 0.00 in/hr0.0 mm/hr 0.00 in0.0 mm
02:16 AM 23.8°F-4.6°C 16.7°F-8.5°C 74% 4.0 mph WSW6.4 kmh WSW 5.0 mph8.0 kmh 30.16 in1021.3 mb 0.00 in0.0 mm 0.00 in/hr0.0 mm/hr 0.00 in0.0 mm
02:31 AM 24.3°F-4.3°C 16.9°F-8.4°C 73% 5.0 mph WSW8.0 kmh WSW 8.0 mph12.9 kmh 30.16 in1021.3 mb 0.00 in0.0 mm 0.00 in/hr0.0 mm/hr 0.00 in0.0 mm
02:46 AM 23.9°F-4.5°C 16.8°F-8.4°C 74% 4.0 mph WSW6.4 kmh WSW 8.0 mph12.9 kmh 30.16 in1021.3 mb 0.00 in0.0 mm 0.00 in/hr0.0 mm/hr 0.00 in0.0 mm
03:01 AM 23.6°F-4.7°C 16.5°F-8.6°C 74% 4.0 mph WSW6.4 kmh WSW 6.0 mph9.7 kmh 30.16 in1021.3 mb 0.00 in0.0 mm 0.00 in/hr0.0 mm/hr 0.00 in0.0 mm
03:15 AM 23.6°F-4.7°C 16.2°F-8.8°C 73% 3.0 mph WSW4.8 kmh WSW 4.0 mph6.4 kmh 30.15 in1021.0 mb 0.00 in0.0 mm 0.00 in/hr0.0 mm/hr 0.00 in0.0 mm
03:31 AM 24.2°F-4.3°C 16.2°F-8.8°C 71% 4.0 mph WSW6.4 kmh WSW 9.0 mph14.5 kmh 30.15 in1021.0 mb 0.00 in0.0 mm 0.00 in/hr0.0 mm/hr 0.00 in0.0 mm
03:45 AM 23.9°F-4.5°C 15.9°F-8.9°C 71% 4.0 mph WSW6.4 kmh WSW 7.0 mph11.3 kmh 30.14 in1020.7 mb 0.00 in0.0 mm 0.00 in/hr0.0 mm/hr 0.00 in0.0 mm
04:01 AM 23.1°F-4.9°C 16.1°F-8.8°C 74% 3.0 mph SW4.8 kmh SW 5.0 mph8.0 kmh 30.14 in1020.7 mb 0.00 in0.0 mm 0.00 in/hr0.0 mm/hr 0.00 in0.0 mm
04:16 AM 23.1°F-4.9°C 16.1°F-8.8°C 74% 2.0 mph WSW3.2 kmh WSW 5.0 mph8.0 kmh 30.14 in1020.7 mb 0.00 in0.0 mm 0.00 in/hr0.0 mm/hr 0.00 in0.0 mm
04:31 AM 23.8°F-4.6°C 15.8°F-9.0°C 71% 3.0 mph WSW4.8 kmh WSW 4.0 mph6.4 kmh 30.14 in1020.7 mb 0.00 in0.0 mm 0.00 in/hr0.0 mm/hr 0.00 in0.0 mm
04:46 AM 23.7°F-4.6°C 15.7°F-9.1°C 71% 3.0 mph WSW4.8 kmh WSW 4.0 mph6.4 kmh 30.14 in1020.7 mb 0.00 in0.0 mm 0.00 in/hr0.0 mm/hr 0.00 in0.0 mm
05:00 AM 23.2°F-4.9°C 15.8°F-9.0°C 73% 2.0 mph WSW3.2 kmh WSW 4.0 mph6.4 kmh 30.14 in1020.7 mb 0.00 in0.0 mm 0.00 in/hr0.0 mm/hr 0.00 in0.0 mm
05:16 AM 22.9°F-5.1°C 15.9°F-8.9°C 74% 3.0 mph SW4.8 kmh SW 3.0 mph4.8 kmh 30.15 in1021.0 mb 0.00 in0.0 mm 0.00 in/hr0.0 mm/hr 0.00 in0.0 mm
05:31 AM 23.0°F-5.0°C 15.7°F-9.1°C 73% 4.0 mph SW6.4 kmh SW 5.0 mph8.0 kmh 30.15 in1021.0 mb 0.00 in0.0 mm 0.00 in/hr0.0 mm/hr 0.00 in0.0 mm
05:46 AM 23.3°F-4.8°C 15.9°F-8.9°C 73% 4.0 mph WSW6.4 kmh WSW 7.0 mph11.3 kmh 30.14 in1020.7 mb 0.00 in0.0 mm 0.00 in/hr0.0 mm/hr 0.00 in0.0 mm
06:01 AM 23.0°F-5.0°C 15.7°F-9.1°C 73% 4.0 mph SW6.4 kmh SW 7.0 mph11.3 kmh 30.14 in1020.7 mb 0.00 in0.0 mm 0.00 in/hr0.0 mm/hr 0.00 in0.0 mm
06:16 AM 22.6°F-5.2°C 15.9°F-8.9°C 75% 5.0 mph SW8.0 kmh SW 7.0 mph11.3 kmh 30.14 in1020.7 mb 0.00 in0.0 mm 0.00 in/hr0.0 mm/hr 0.00 in0.0 mm
06:31 AM 22.4°F-5.3°C 15.7°F-9.1°C 75% 5.0 mph WSW8.0 kmh WSW 7.0 mph11.3 kmh 30.14 in1020.7 mb 0.00 in0.0 mm 0.00 in/hr0.0 mm/hr 0.00 in0.0 mm
06:46 AM 23.4°F-4.8°C 15.7°F-9.1°C 72% 6.0 mph WSW9.7 kmh WSW 11.0 mph17.7 kmh 30.15 in1021.0 mb 0.00 in0.0 mm 0.00 in/hr0.0 mm/hr 0.00 in0.0 mm
07:01 AM 22.8°F-5.1°C 15.8°F-9.0°C 74% 6.0 mph WSW9.7 kmh WSW 8.0 mph12.9 kmh 30.13 in1020.3 mb 0.00 in0.0 mm 0.00 in/hr0.0 mm/hr 0.00 in0.0 mm
07:15 AM 22.3°F-5.4°C 15.6°F-9.1°C 75% 5.0 mph WSW8.0 kmh WSW 7.0 mph11.3 kmh 30.13 in1020.3 mb 0.00 in0.0 mm 0.00 in/hr0.0 mm/hr 0.00 in0.0 mm
07:31 AM 22.2°F-5.4°C 15.8°F-9.0°C 76% 6.0 mph WSW9.7 kmh WSW 8.0 mph12.9 kmh 30.13 in1020.3 mb 0.00 in0.0 mm 0.00 in/hr0.0 mm/hr 0.00 in0.0 mm
07:46 AM 22.1°F-5.5°C 15.7°F-9.1°C 76% 8.0 mph WSW12.9 kmh WSW 8.0 mph12.9 kmh 30.13 in1020.3 mb 0.00 in0.0 mm 0.00 in/hr0.0 mm/hr 0.00 in0.0 mm
08:02 AM 22.7°F-5.2°C 16.0°F-8.9°C 75% 6.0 mph WSW9.7 kmh WSW 9.0 mph14.5 kmh 30.13 in1020.3 mb 0.00 in0.0 mm 0.00 in/hr0.0 mm/hr 0.00 in0.0 mm
08:15 AM 23.8°F-4.6°C 16.1°F-8.8°C 72% 7.0 mph WSW11.3 kmh WSW 11.0 mph17.7 kmh 30.13 in1020.3 mb 0.00 in0.0 mm 0.00 in/hr0.0 mm/hr 0.00 in0.0 mm
08:31 AM 23.7°F-4.6°C 16.3°F-8.7°C 73% 10.0 mph WSW16.1 kmh WSW 11.0 mph17.7 kmh 30.14 in1020.7 mb 0.00 in0.0 mm 0.00 in/hr0.0 mm/hr 0.00 in0.0 mm
08:46 AM 23.3°F-4.8°C 16.3°F-8.7°C 74% 7.0 mph WSW11.3 kmh WSW 9.0 mph14.5 kmh 30.14 in1020.7 mb 0.00 in0.0 mm 0.00 in/hr0.0 mm/hr 0.00 in0.0 mm
09:01 AM 24.0°F-4.4°C 16.6°F-8.6°C 73% 6.0 mph WSW9.7 kmh WSW 10.0 mph16.1 kmh 30.14 in1020.7 mb 0.00 in0.0 mm 0.00 in/hr0.0 mm/hr 0.00 in0.0 mm
09:15 AM 24.5°F-4.2°C 16.8°F-8.4°C 72% 8.0 mph WSW12.9 kmh WSW 12.0 mph19.3 kmh 30.14 in1020.7 mb 0.00 in0.0 mm 0.00 in/hr0.0 mm/hr 0.00 in0.0 mm
09:31 AM 25.3°F-3.7°C 17.6°F-8.0°C 72% 7.0 mph WSW11.3 kmh WSW 11.0 mph17.7 kmh 30.14 in1020.7 mb 0.00 in0.0 mm 0.00 in/hr0.0 mm/hr 0.00 in0.0 mm
09:46 AM 26.1°F-3.3°C 17.7°F-7.9°C 70% 6.0 mph WSW9.7 kmh WSW 11.0 mph17.7 kmh 30.14 in1020.7 mb 0.00 in0.0 mm 0.00 in/hr0.0 mm/hr 0.00 in0.0 mm
10:02 AM 27.0°F-2.8°C 18.5°F-7.5°C 70% 7.0 mph WSW11.3 kmh WSW 12.0 mph19.3 kmh 30.13 in1020.3 mb 0.00 in0.0 mm 0.00 in/hr0.0 mm/hr 0.00 in0.0 mm
10:16 AM 28.1°F-2.2°C 18.2°F-7.7°C 66% 11.0 mph W17.7 kmh W 11.0 mph17.7 kmh 30.13 in1020.3 mb 0.00 in0.0 mm 0.00 in/hr0.0 mm/hr 0.00 in0.0 mm
10:31 AM 29.0°F-1.7°C 18.4°F-7.6°C 64% 11.0 mph WSW17.7 kmh WSW 15.0 mph24.1 kmh 30.13 in1020.3 mb 0.00 in0.0 mm 0.00 in/hr0.0 mm/hr 0.00 in0.0 mm
10:46 AM 30.0°F-1.1°C 18.6°F-7.4°C 62% 9.0 mph WSW14.5 kmh WSW 11.0 mph17.7 kmh 30.12 in1020.0 mb 0.00 in0.0 mm 0.00 in/hr0.0 mm/hr 0.00 in0.0 mm
11:02 AM 30.4°F-0.9°C 19.7°F-6.8°C 64% 7.0 mph WSW11.3 kmh WSW 11.0 mph17.7 kmh 30.12 in1020.0 mb 0.00 in0.0 mm 0.00 in/hr0.0 mm/hr 0.00 in0.0 mm
11:15 AM 31.0°F-0.6°C 19.5°F-6.9°C 62% 6.0 mph WSW9.7 kmh WSW 13.0 mph20.9 kmh 30.13 in1020.3 mb 0.00 in0.0 mm 0.00 in/hr0.0 mm/hr 0.00 in0.0 mm
11:31 AM 32.0°F0.0°C 18.9°F-7.3°C 58% 12.0 mph WSW19.3 kmh WSW 13.0 mph20.9 kmh 30.12 in1020.0 mb 0.00 in0.0 mm 0.00 in/hr0.0 mm/hr 0.00 in0.0 mm
11:47 AM 32.7°F0.4°C 20.8°F-6.2°C 61% 9.0 mph WSW14.5 kmh WSW 12.0 mph19.3 kmh 30.12 in1020.0 mb 0.00 in0.0 mm 0.00 in/hr0.0 mm/hr 0.00 in0.0 mm
12:01 PM 33.4°F0.8°C 19.8°F-6.8°C 57% 9.0 mph SW14.5 kmh SW 12.0 mph19.3 kmh 30.10 in1019.3 mb 0.00 in0.0 mm 0.00 in/hr0.0 mm/hr 0.00 in0.0 mm
12:16 PM 33.8°F1.0°C 20.6°F-6.3°C 58% 9.0 mph SW14.5 kmh SW 11.0 mph17.7 kmh 30.09 in1019.0 mb 0.00 in0.0 mm 0.00 in/hr0.0 mm/hr 0.00 in0.0 mm
12:31 PM 34.4°F1.3°C 22.0°F-5.6°C 60% 10.0 mph SW16.1 kmh SW 14.0 mph22.5 kmh 30.09 in1019.0 mb 0.00 in0.0 mm 0.00 in/hr0.0 mm/hr 0.00 in0.0 mm
12:46 PM 35.0°F1.7°C 22.9°F-5.1°C 61% 7.0 mph SW11.3 kmh SW 10.0 mph16.1 kmh 30.08 in1018.6 mb 0.00 in0.0 mm 0.00 in/hr0.0 mm/hr 0.00 in0.0 mm
01:02 PM 35.7°F2.1°C 20.7°F-6.3°C 54% 10.0 mph WSW16.1 kmh WSW 12.0 mph19.3 kmh 30.08 in1018.6 mb 0.00 in0.0 mm 0.00 in/hr0.0 mm/hr 0.00 in0.0 mm
01:15 PM 36.4°F2.4°C 20.5°F-6.4°C 52% 10.0 mph SW16.1 kmh SW 14.0 mph22.5 kmh 30.07 in1018.3 mb 0.00 in0.0 mm 0.00 in/hr0.0 mm/hr 0.00 in0.0 mm
01:30 PM 38.8°F3.8°C 15.4°F-9.2°C 38% 8.0 mph WSW12.9 kmh WSW 15.0 mph24.1 kmh 30.07 in1018.3 mb 0.00 in0.0 mm 0.00 in/hr0.0 mm/hr 0.00 in0.0 mm
01:45 PM 37.9°F3.3°C 18.5°F-7.5°C 45% 9.0 mph WSW14.5 kmh WSW 16.0 mph25.7 kmh 30.06 in1017.9 mb 0.00 in0.0 mm 0.00 in/hr0.0 mm/hr 0.00 in0.0 mm
02:02 PM 38.0°F3.3°C 18.0°F-7.8°C 44% 12.0 mph WSW19.3 kmh WSW 18.0 mph29.0 kmh 30.06 in1017.9 mb 0.00 in0.0 mm 0.00 in/hr0.0 mm/hr 0.00 in0.0 mm
02:16 PM 38.2°F3.4°C 17.7°F-7.9°C 43% 12.0 mph WSW19.3 kmh WSW 21.0 mph33.8 kmh 30.05 in1017.6 mb 0.00 in0.0 mm 0.00 in/hr0.0 mm/hr 0.00 in0.0 mm
02:31 PM 39.1°F3.9°C 19.0°F-7.2°C 44% 10.0 mph SW16.1 kmh SW 17.0 mph27.4 kmh 30.04 in1017.3 mb 0.00 in0.0 mm 0.00 in/hr0.0 mm/hr 0.00 in0.0 mm
02:46 PM 38.6°F3.7°C 17.0°F-8.3°C 41% 15.0 mph SW24.1 kmh SW 20.0 mph32.2 kmh 30.04 in1017.3 mb 0.00 in0.0 mm 0.00 in/hr0.0 mm/hr 0.00 in0.0 mm
03:02 PM 38.7°F3.7°C 18.1°F-7.7°C 43% 17.0 mph SW27.4 kmh SW 21.0 mph33.8 kmh 30.03 in1016.9 mb 0.00 in0.0 mm 0.00 in/hr0.0 mm/hr 0.00 in0.0 mm
03:16 PM 38.6°F3.7°C 20.1°F-6.6°C 47% 17.0 mph WSW27.4 kmh WSW 19.0 mph30.6 kmh 30.03 in1016.9 mb 0.00 in0.0 mm 0.00 in/hr0.0 mm/hr 0.00 in0.0 mm
03:31 PM 38.7°F3.7°C 18.1°F-7.7°C 43% 12.0 mph WSW19.3 kmh WSW 21.0 mph33.8 kmh 30.02 in1016.6 mb 0.00 in0.0 mm 0.00 in/hr0.0 mm/hr 0.00 in0.0 mm
03:46 PM 37.9°F3.3°C 21.4°F-5.9°C 51% 13.0 mph SW20.9 kmh SW 16.0 mph25.7 kmh 30.02 in1016.6 mb 0.00 in0.0 mm 0.00 in/hr0.0 mm/hr 0.00 in0.0 mm
04:02 PM 38.3°F3.5°C 19.9°F-6.7°C 47% 15.0 mph SW24.1 kmh SW 21.0 mph33.8 kmh 30.03 in1016.9 mb 0.00 in0.0 mm 0.00 in/hr0.0 mm/hr 0.00 in0.0 mm
04:16 PM 38.5°F3.6°C 19.5°F-6.9°C 46% 15.0 mph WSW24.1 kmh WSW 20.0 mph32.2 kmh 30.03 in1016.9 mb 0.00 in0.0 mm 0.00 in/hr0.0 mm/hr 0.00 in0.0 mm
04:31 PM 38.4°F3.6°C 19.4°F-7.0°C 46% 16.0 mph WSW25.7 kmh WSW 21.0 mph33.8 kmh 30.02 in1016.6 mb 0.00 in0.0 mm 0.00 in/hr0.0 mm/hr 0.00 in0.0 mm
04:46 PM 37.3°F2.9°C 23.1°F-4.9°C 56% 11.0 mph SW17.7 kmh SW 14.0 mph22.5 kmh 30.02 in1016.6 mb 0.00 in0.0 mm 0.00 in/hr0.0 mm/hr 0.00 in0.0 mm
05:01 PM 38.0°F3.3°C 20.6°F-6.3°C 49% 12.0 mph WSW19.3 kmh WSW 17.0 mph27.4 kmh 30.02 in1016.6 mb 0.00 in0.0 mm 0.00 in/hr0.0 mm/hr 0.00 in0.0 mm
05:16 PM 37.5°F3.1°C 20.6°F-6.3°C 50% 11.0 mph SW17.7 kmh SW 15.0 mph24.1 kmh 30.01 in1016.3 mb 0.00 in0.0 mm 0.00 in/hr0.0 mm/hr 0.00 in0.0 mm
05:31 PM 37.5°F3.1°C 19.6°F-6.9°C 48% 15.0 mph SW24.1 kmh SW 18.0 mph29.0 kmh 30.01 in1016.3 mb 0.00 in0.0 mm 0.00 in/hr0.0 mm/hr 0.00 in0.0 mm
05:46 PM 36.9°F2.7°C 20.0°F-6.7°C 50% 12.0 mph WSW19.3 kmh WSW 16.0 mph25.7 kmh 30.01 in1016.3 mb 0.00 in0.0 mm 0.00 in/hr0.0 mm/hr 0.00 in0.0 mm
06:01 PM 35.5°F1.9°C 22.2°F-5.4°C 58% 11.0 mph SW17.7 kmh SW 15.0 mph24.1 kmh 30.01 in1016.3 mb 0.00 in0.0 mm 0.00 in/hr0.0 mm/hr 0.00 in0.0 mm
06:16 PM 35.7°F2.1°C 21.1°F-6.1°C 55% 13.0 mph SW20.9 kmh SW 17.0 mph27.4 kmh 30.02 in1016.6 mb 0.00 in0.0 mm 0.00 in/hr0.0 mm/hr 0.00 in0.0 mm
06:31 PM 35.4°F1.9°C 20.9°F-6.2°C 55% 16.0 mph WSW25.7 kmh WSW 17.0 mph27.4 kmh 30.02 in1016.6 mb 0.00 in0.0 mm 0.00 in/hr0.0 mm/hr 0.00 in0.0 mm
06:46 PM 35.0°F1.7°C 20.5°F-6.4°C 55% 14.0 mph SW22.5 kmh SW 17.0 mph27.4 kmh 30.02 in1016.6 mb 0.00 in0.0 mm 0.00 in/hr0.0 mm/hr 0.00 in0.0 mm
07:03 PM 33.8°F1.0°C 22.9°F-5.1°C 64% 10.0 mph SW16.1 kmh SW 14.0 mph22.5 kmh 30.02 in1016.6 mb 0.00 in0.0 mm 0.00 in/hr0.0 mm/hr 0.00 in0.0 mm
07:16 PM 33.8°F1.0°C 21.4°F-5.9°C 60% 12.0 mph SW19.3 kmh SW 17.0 mph27.4 kmh 30.02 in1016.6 mb 0.00 in0.0 mm 0.00 in/hr0.0 mm/hr 0.00 in0.0 mm
07:32 PM 34.2°F1.2°C 20.2°F-6.6°C 56% 19.0 mph WSW30.6 kmh WSW 22.0 mph35.4 kmh 30.02 in1016.6 mb 0.00 in0.0 mm 0.00 in/hr0.0 mm/hr 0.00 in0.0 mm
07:46 PM 33.5°F0.8°C 19.9°F-6.7°C 57% 13.0 mph WSW20.9 kmh WSW 21.0 mph33.8 kmh 30.02 in1016.6 mb 0.00 in0.0 mm 0.00 in/hr0.0 mm/hr 0.00 in0.0 mm
08:02 PM 33.1°F0.6°C 20.4°F-6.4°C 59% 13.0 mph WSW20.9 kmh WSW 17.0 mph27.4 kmh 30.03 in1016.9 mb 0.00 in0.0 mm 0.00 in/hr0.0 mm/hr 0.00 in0.0 mm
08:16 PM 32.5°F0.3°C 20.2°F-6.6°C 60% 17.0 mph WSW27.4 kmh WSW 19.0 mph30.6 kmh 30.03 in1016.9 mb 0.00 in0.0 mm 0.00 in/hr0.0 mm/hr 0.00 in0.0 mm
08:31 PM 32.2°F0.1°C 19.9°F-6.7°C 60% 14.0 mph WSW22.5 kmh WSW 21.0 mph33.8 kmh 30.03 in1016.9 mb 0.00 in0.0 mm 0.00 in/hr0.0 mm/hr 0.00 in0.0 mm
08:45 PM 31.7°F-0.2°C 19.0°F-7.2°C 59% 17.0 mph WSW27.4 kmh WSW 23.0 mph37.0 kmh 30.03 in1016.9 mb 0.00 in0.0 mm 0.00 in/hr0.0 mm/hr 0.00 in0.0 mm
09:02 PM 31.1°F-0.5°C 20.0°F-6.7°C 63% 16.0 mph SW25.7 kmh SW 20.0 mph32.2 kmh 30.03 in1016.9 mb 0.00 in0.0 mm 0.00 in/hr0.0 mm/hr 0.00 in0.0 mm
09:16 PM 30.6°F-0.8°C 20.3°F-6.5°C 65% 13.0 mph WSW20.9 kmh WSW 19.0 mph30.6 kmh 30.03 in1016.9 mb 0.00 in0.0 mm 0.00 in/hr0.0 mm/hr 0.00 in0.0 mm
09:32 PM 30.3°F-0.9°C 20.0°F-6.7°C 65% 16.0 mph WSW25.7 kmh WSW 20.0 mph32.2 kmh 30.03 in1016.9 mb 0.00 in0.0 mm 0.00 in/hr0.0 mm/hr 0.00 in0.0 mm
09:46 PM 30.0°F-1.1°C 20.4°F-6.4°C 67% 13.0 mph WSW20.9 kmh WSW 20.0 mph32.2 kmh 30.03 in1016.9 mb 0.00 in0.0 mm 0.00 in/hr0.0 mm/hr 0.00 in0.0 mm
10:03 PM 29.7°F-1.3°C 20.8°F-6.2°C 69% 13.0 mph WSW20.9 kmh WSW 19.0 mph30.6 kmh 30.03 in1016.9 mb 0.00 in0.0 mm 0.00 in/hr0.0 mm/hr 0.00 in0.0 mm
10:16 PM 29.7°F-1.3°C 21.1°F-6.1°C 70% 13.0 mph WSW20.9 kmh WSW 17.0 mph27.4 kmh 30.03 in1016.9 mb 0.00 in0.0 mm 0.00 in/hr0.0 mm/hr 0.00 in0.0 mm
10:31 PM 29.5°F-1.4°C 21.6°F-5.8°C 72% 9.0 mph WSW14.5 kmh WSW 17.0 mph27.4 kmh 30.03 in1016.9 mb 0.00 in0.0 mm 0.00 in/hr0.0 mm/hr 0.00 in0.0 mm
10:46 PM 29.4°F-1.4°C 21.5°F-5.8°C 72% 13.0 mph SW20.9 kmh SW 20.0 mph32.2 kmh 30.03 in1016.9 mb 0.00 in0.0 mm 0.00 in/hr0.0 mm/hr 0.00 in0.0 mm
11:02 PM 29.2°F-1.6°C 22.0°F-5.6°C 74% 14.0 mph SW22.5 kmh SW 18.0 mph29.0 kmh 30.03 in1016.9 mb 0.00 in0.0 mm 0.00 in/hr0.0 mm/hr 0.00 in0.0 mm
11:15 PM 29.2°F-1.6°C 22.3°F-5.4°C 75% 14.0 mph SW22.5 kmh SW 17.0 mph27.4 kmh 30.02 in1016.6 mb 0.00 in0.0 mm 0.00 in/hr0.0 mm/hr 0.00 in0.0 mm
11:46 PM 29.0°F-1.7°C 22.4°F-5.3°C 76% 14.0 mph SW22.5 kmh SW 17.0 mph27.4 kmh 30.02 in1016.6 mb 0.00 in0.0 mm 0.00 in/hr0.0 mm/hr 0.00 in0.0 mm